Time;durP1;ratioP1;P1;durP2;ratioP2;P2;SDS_P1;SDS_P2;PMS_P1;PMS_P2;Temp;Humidity;BMP_temperature;BMP_pressure;BME280_temperature;BME280_humidity;BME280_pressure;Samples;Min_cycle;Max_cycle;Signal;HPM_P1;HPM_P2
2022/09/28 01:03:55;;;;;;;1999.90;999.90;;;;;;;;;;6003335;22;20245;-67
2022/09/28 01:06:40;;;;;;;1999.90;999.90;;;;;;;;;;5036657;28;20255;-67
2022/09/28 01:09:26;;;;;;;1999.90;999.90;;;;;;;;;;5049316;28;20579;-66
2022/09/28 01:12:11;;;;;;;1999.90;999.90;;;;;;;;;;5046943;28;20204;-66
2022/09/28 01:14:57;;;;;;;1999.90;999.90;;;;;;;;;;5058736;28;20249;-66
2022/09/28 01:17:50;;;;;;;1999.90;999.90;;;;;;;;;;5051331;28;20726;-66
2022/09/28 01:20:51;;;;;;;1999.90;999.90;;;;;;;;;;5051386;28;20332;-66
2022/09/28 01:24:09;;;;;;;1999.90;999.90;;;;;;;;;;5054042;28;20240;-65
2022/09/28 01:27:02;;;;;;;1999.90;999.90;;;;;;;;;;5051177;28;20585;-66
2022/09/28 01:29:52;;;;;;;1999.90;999.90;;;;;;;;;;5050787;28;20574;-66
2022/09/28 01:32:43;;;;;;;1999.90;999.90;;;;;;;;;;5050983;28;20217;-65
2022/09/28 01:35:31;;;;;;;1999.90;999.90;;;;;;;;;;5050626;28;20806;-66
2022/09/28 01:38:19;;;;;;;1999.90;999.90;;;;;;;;;;5051000;28;20258;-62
2022/09/28 01:41:04;;;;;;;1999.90;999.90;;;;;;;;;;5068514;28;20402;-66
2022/09/28 01:43:53;;;;;;;1999.90;999.90;;;;;;;;;;5069774;28;20232;-66
2022/09/28 01:46:40;;;;;;;1999.90;999.90;;;;;;;;;;5070324;28;20283;-66
2022/09/28 01:49:27;;;;;;;1999.90;999.90;;;;;;;;;;5064297;28;20539;-68
2022/09/28 01:52:15;;;;;;;1999.90;999.90;;;;;;;;;;5060347;28;20211;-68
2022/09/28 01:55:02;;;;;;;1999.90;999.90;;;;;;;;;;5062760;28;20236;-66
2022/09/28 01:57:49;;;;;;;1999.90;999.90;;;;;;;;;;5069741;28;20436;-65
2022/09/28 02:00:40;;;;;;;1999.90;999.90;;;;;;;;;;5065682;28;20251;-65
2022/09/28 02:03:29;;;;;;;1999.90;999.90;;;;;;;;;;5059367;28;20585;-66
2022/09/28 02:06:16;;;;;;;1999.90;999.90;;;;;;;;;;5068536;28;20243;-65
2022/09/28 02:09:05;;;;;;;1999.90;999.90;;;;;;;;;;5061537;28;20706;-67
2022/09/28 02:11:53;;;;;;;1999.90;999.90;;;;;;;;;;5066356;28;20207;-67
2022/09/28 02:14:40;;;;;;;1999.90;999.90;;;;;;;;;;5064490;28;20725;-67
2022/09/28 02:17:26;;;;;;;1999.90;999.90;;;;;;;;;;5062218;28;20230;-67
2022/09/28 02:20:11;;;;;;;1999.90;999.90;;;;;;;;;;5070359;28;20660;-67
2022/09/28 02:22:57;;;;;;;1999.90;999.90;;;;;;;;;;5059539;28;20416;-67
2022/09/28 02:25:44;;;;;;;1999.90;999.90;;;;;;;;;;5070307;28;20228;-67
2022/09/28 02:28:30;;;;;;;1999.90;999.90;;;;;;;;;;5062964;28;20284;-67
2022/09/28 02:31:15;;;;;;;1999.90;999.90;;;;;;;;;;5063155;28;20219;-67
2022/09/28 02:34:01;;;;;;;1999.90;999.90;;;;;;;;;;5066292;28;20301;-67
2022/09/28 02:36:46;;;;;;;1999.90;999.90;;;;;;;;;;5073329;28;20709;-67
2022/09/28 02:39:31;;;;;;;1999.90;999.90;;;;;;;;;;5068136;28;20204;-68
2022/09/28 02:42:20;;;;;;;1999.90;999.90;;;;;;;;;;5069953;28;20382;-67
2022/09/28 02:45:10;;;;;;;1999.90;999.90;;;;;;;;;;5070220;28;20733;-67
2022/09/28 02:47:59;;;;;;;1999.90;999.90;;;;;;;;;;5065751;28;20239;-68
2022/09/28 02:50:49;;;;;;;1999.90;999.90;;;;;;;;;;5073365;28;20338;-67
2022/09/28 02:53:52;;;;;;;1999.90;999.90;;;;;;;;;;5066835;28;20419;-67
2022/09/28 02:56:53;;;;;;;1999.90;999.90;;;;;;;;;;5066799;28;20289;-68
2022/09/28 02:59:53;;;;;;;1999.90;999.90;;;;;;;;;;5054651;28;20284;-67
2022/09/28 03:02:41;;;;;;;1999.90;999.90;;;;;;;;;;5062377;28;20204;-65
2022/09/28 03:05:31;;;;;;;1999.90;999.90;;;;;;;;;;5061638;28;20224;-67
2022/09/28 03:08:21;;;;;;;1999.90;999.90;;;;;;;;;;5065676;28;20207;-67
2022/09/28 03:11:09;;;;;;;1999.90;999.90;;;;;;;;;;5069618;28;20425;-67
2022/09/28 03:13:54;;;;;;;1999.90;999.90;;;;;;;;;;5070530;28;20266;-68
2022/09/28 03:16:42;;;;;;;1999.90;999.90;;;;;;;;;;5067161;28;20283;-67
2022/09/28 03:19:30;;;;;;;1999.90;999.90;;;;;;;;;;5056606;28;20330;-67
2022/09/28 03:22:16;;;;;;;1999.90;999.90;;;;;;;;;;5065173;28;20357;-67
2022/09/28 03:25:02;;;;;;;1999.90;999.90;;;;;;;;;;5072118;28;20220;-67
2022/09/28 03:27:47;;;;;;;1999.90;999.90;;;;;;;;;;5065420;28;20808;-67
2022/09/28 03:30:32;;;;;;;1999.90;999.90;;;;;;;;;;5072505;28;20741;-67
2022/09/28 03:33:18;;;;;;;1999.90;999.90;;;;;;;;;;5065131;28;20274;-67
2022/09/28 03:36:03;;;;;;;1999.90;999.90;;;;;;;;;;5063811;28;20695;-67
2022/09/28 03:38:48;;;;;;;1999.90;999.90;;;;;;;;;;5072342;28;20214;-68
2022/09/28 03:41:34;;;;;;;1999.90;999.90;;;;;;;;;;5061698;28;20670;-67
2022/09/28 03:44:20;;;;;;;1999.90;999.90;;;;;;;;;;5058972;28;20231;-68
2022/09/28 03:47:06;;;;;;;1999.90;999.90;;;;;;;;;;5064974;28;20706;-67
2022/09/28 03:49:51;;;;;;;1999.90;999.90;;;;;;;;;;5072114;28;20211;-67
2022/09/28 03:52:36;;;;;;;1999.90;999.90;;;;;;;;;;5067445;28;20258;-67
2022/09/28 03:55:21;;;;;;;1999.90;999.90;;;;;;;;;;5067824;28;20228;-68
2022/09/28 03:58:07;;;;;;;1999.90;999.90;;;;;;;;;;5071434;28;20253;-67
2022/09/28 04:00:52;;;;;;;1999.90;999.90;;;;;;;;;;5061295;28;20714;-67
2022/09/28 04:03:37;;;;;;;1999.90;999.90;;;;;;;;;;5064407;28;20638;-67
2022/09/28 04:06:24;;;;;;;1999.90;999.90;;;;;;;;;;5060522;28;20227;-67
2022/09/28 04:09:09;;;;;;;1999.90;999.90;;;;;;;;;;5061849;28;20776;-65
2022/09/28 04:11:54;;;;;;;1999.90;999.90;;;;;;;;;;5064439;28;20215;-67
2022/09/28 04:14:40;;;;;;;1999.90;999.90;;;;;;;;;;5071236;28;20255;-65
2022/09/28 04:17:26;;;;;;;1999.90;999.90;;;;;;;;;;5065213;28;20294;-67
2022/09/28 04:20:11;;;;;;;1999.90;999.90;;;;;;;;;;5063525;28;20215;-67
2022/09/28 04:22:57;;;;;;;1999.90;999.90;;;;;;;;;;5070422;28;21727;-67
2022/09/28 04:25:46;;;;;;;1999.90;999.90;;;;;;;;;;5063760;28;20227;-66
2022/09/28 04:31:39;;;;;;;1999.90;999.90;;;;;;;;;;5066373;28;20244;-65
2022/09/28 04:34:24;;;;;;;1999.90;999.90;;;;;;;;;;5066745;28;20228;-66
2022/09/28 04:37:09;;;;;;;1999.90;999.90;;;;;;;;;;5067443;28;20743;-65
2022/09/28 04:39:53;;;;;;;1999.90;999.90;;;;;;;;;;5061045;28;20280;-67
2022/09/28 04:42:38;;;;;;;1999.90;999.90;;;;;;;;;;5065738;28;20580;-66
2022/09/28 04:45:24;;;;;;;1999.90;999.90;;;;;;;;;;5051935;28;20231;-64
2022/09/28 04:48:11;;;;;;;1999.90;999.90;;;;;;;;;;5071868;28;20336;-67
2022/09/28 04:50:57;;;;;;;1999.90;999.90;;;;;;;;;;5072299;28;20206;-67
2022/09/28 04:53:42;;;;;;;1999.90;999.90;;;;;;;;;;5062712;28;20623;-67
2022/09/28 04:56:27;;;;;;;1999.90;999.90;;;;;;;;;;5064983;28;20230;-67
2022/09/28 04:59:12;;;;;;;1999.90;999.90;;;;;;;;;;5066430;28;20204;-67
2022/09/28 05:01:57;;;;;;;1999.90;999.90;;;;;;;;;;5066864;28;20282;-65
2022/09/28 05:04:43;;;;;;;1999.90;999.90;;;;;;;;;;5051602;28;20239;-65
2022/09/28 05:07:30;;;;;;;1999.90;999.90;;;;;;;;;;5051946;28;20201;-64
2022/09/28 05:10:14;;;;;;;1999.90;999.90;;;;;;;;;;5058296;28;20275;-66
2022/09/28 05:13:01;;;;;;;1999.90;999.90;;;;;;;;;;5069318;28;20576;-67
2022/09/28 05:15:46;;;;;;;1999.90;999.90;;;;;;;;;;5059688;28;20396;-66
2022/09/28 05:18:32;;;;;;;1999.90;999.90;;;;;;;;;;5050977;28;20197;-66
2022/09/28 05:21:19;;;;;;;1999.90;999.90;;;;;;;;;;5066060;28;20208;-66
2022/09/28 05:24:06;;;;;;;1999.90;999.90;;;;;;;;;;5069742;28;20616;-66
2022/09/28 05:26:51;;;;;;;1999.90;999.90;;;;;;;;;;5063773;28;20251;-66
2022/09/28 05:29:36;;;;;;;1999.90;999.90;;;;;;;;;;5051109;28;20215;-67
2022/09/28 05:32:21;;;;;;;1999.90;999.90;;;;;;;;;;5050920;28;20203;-67
2022/09/28 05:35:06;;;;;;;1999.90;999.90;;;;;;;;;;5049505;28;21091;-67
2022/09/28 05:37:53;;;;;;;1999.90;999.90;;;;;;;;;;5050919;28;20742;-66
2022/09/28 05:40:38;;;;;;;1999.90;999.90;;;;;;;;;;5050656;28;20210;-67
2022/09/28 05:43:23;;;;;;;1999.90;999.90;;;;;;;;;;5053332;28;20692;-67
2022/09/28 05:46:08;;;;;;;1999.90;999.90;;;;;;;;;;5069820;28;20243;-67
2022/09/28 05:48:53;;;;;;;1999.90;999.90;;;;;;;;;;5060394;28;20207;-67
2022/09/28 05:51:38;;;;;;;1999.90;999.90;;;;;;;;;;5063022;28;20260;-66
2022/09/28 05:54:25;;;;;;;1999.90;999.90;;;;;;;;;;5058370;28;20234;-66
2022/09/28 05:57:10;;;;;;;1999.90;999.90;;;;;;;;;;5067971;28;20223;-65
2022/09/28 05:59:55;;;;;;;1999.90;999.90;;;;;;;;;;5063153;28;20210;-65
2022/09/28 06:02:40;;;;;;;1999.90;999.90;;;;;;;;;;5074157;28;20682;-67
2022/09/28 06:05:26;;;;;;;1999.90;999.90;;;;;;;;;;5067360;28;20918;-67
2022/09/28 06:08:11;;;;;;;1999.90;999.90;;;;;;;;;;5064163;28;20314;-67
2022/09/28 06:11:00;;;;;;;1999.90;999.90;;;;;;;;;;5056863;28;20219;-63
2022/09/28 06:13:45;;;;;;;1999.90;999.90;;;;;;;;;;5057267;28;20240;-66
2022/09/28 06:16:30;;;;;;;1999.90;999.90;;;;;;;;;;5066711;28;20285;-66
2022/09/28 06:19:15;;;;;;;1999.90;999.90;;;;;;;;;;5072918;28;20276;-66
2022/09/28 06:22:00;;;;;;;1999.90;999.90;;;;;;;;;;5073580;28;20223;-66
2022/09/28 06:24:45;;;;;;;1999.90;999.90;;;;;;;;;;5072229;28;20235;-67
2022/09/28 06:27:31;;;;;;;1999.90;999.90;;;;;;;;;;5074255;28;20700;-67
2022/09/28 06:30:16;;;;;;;1999.90;999.90;;;;;;;;;;5074515;28;20325;-64
2022/09/28 06:33:01;;;;;;;1999.90;999.90;;;;;;;;;;5074719;28;20196;-65
2022/09/28 06:35:46;;;;;;;1999.90;999.90;;;;;;;;;;5074415;28;20199;-66
2022/09/28 06:38:31;;;;;;;1999.90;999.90;;;;;;;;;;5070445;28;21796;-67
2022/09/28 06:41:16;;;;;;;1999.90;999.90;;;;;;;;;;5066331;28;20213;-67
2022/09/28 06:44:03;;;;;;;1999.90;999.90;;;;;;;;;;5064901;28;20248;-67
2022/09/28 06:46:47;;;;;;;1999.90;999.90;;;;;;;;;;5064268;28;20927;-66
2022/09/28 06:49:32;;;;;;;1999.90;999.90;;;;;;;;;;5068022;28;20205;-67
2022/09/28 06:52:17;;;;;;;1999.90;999.90;;;;;;;;;;5068682;28;20302;-67
2022/09/28 06:55:02;;;;;;;1999.90;999.90;;;;;;;;;;5064162;28;20716;-67
2022/09/28 06:57:47;;;;;;;1999.90;999.90;;;;;;;;;;5054299;28;20213;-68
2022/09/28 07:00:34;;;;;;;1999.90;999.90;;;;;;;;;;5069149;28;20691;-68
2022/09/28 07:03:21;;;;;;;1999.90;999.90;;;;;;;;;;5066568;28;20578;-67
2022/09/28 07:06:06;;;;;;;1999.90;999.90;;;;;;;;;;5070183;28;20210;-67
2022/09/28 07:08:51;;;;;;;1999.90;999.90;;;;;;;;;;5072288;28;20253;-67
2022/09/28 07:11:39;;;;;;;1999.90;999.90;;;;;;;;;;5071688;28;20211;-67
2022/09/28 07:14:24;;;;;;;1999.90;999.90;;;;;;;;;;5052944;28;20223;-67
2022/09/28 07:17:11;;;;;;;1999.90;999.90;;;;;;;;;;5053866;28;20289;-67
2022/09/28 07:19:57;;;;;;;1999.90;999.90;;;;;;;;;;5056767;28;20211;-68
2022/09/28 07:22:43;;;;;;;1999.90;999.90;;;;;;;;;;5071722;28;20211;-67
2022/09/28 07:25:30;;;;;;;1999.90;999.90;;;;;;;;;;5071527;28;20220;-67
2022/09/28 07:28:16;;;;;;;1999.90;999.90;;;;;;;;;;5072874;28;20220;-67
2022/09/28 07:31:02;;;;;;;1999.90;999.90;;;;;;;;;;5068549;28;20678;-67
2022/09/28 07:33:51;;;;;;;1999.90;999.90;;;;;;;;;;5058920;28;20244;-67
2022/09/28 07:36:37;;;;;;;1999.90;999.90;;;;;;;;;;5060019;28;20220;-67
2022/09/28 07:39:22;;;;;;;1999.90;999.90;;;;;;;;;;5072559;28;20414;-67
2022/09/28 07:42:06;;;;;;;1999.90;999.90;;;;;;;;;;5070476;28;20664;-67
2022/09/28 07:44:51;;;;;;;1999.90;999.90;;;;;;;;;;5053095;28;20715;-67
2022/09/28 07:47:36;;;;;;;1999.90;999.90;;;;;;;;;;5068970;28;20220;-68
2022/09/28 07:50:24;;;;;;;1999.90;999.90;;;;;;;;;;5064803;28;20209;-68
2022/09/28 07:53:09;;;;;;;1999.90;999.90;;;;;;;;;;5064286;28;20299;-66
2022/09/28 07:55:54;;;;;;;1999.90;999.90;;;;;;;;;;5065988;28;20212;-67
2022/09/28 07:58:40;;;;;;;1999.90;999.90;;;;;;;;;;5067614;28;20411;-67
2022/09/28 08:01:25;;;;;;;1999.90;999.90;;;;;;;;;;5053100;28;20406;-67
2022/09/28 08:04:10;;;;;;;1999.90;999.90;;;;;;;;;;5072019;28;20724;-67
2022/09/28 08:06:59;;;;;;;1999.90;999.90;;;;;;;;;;5072773;28;20228;-67
2022/09/28 08:09:44;;;;;;;1999.90;999.90;;;;;;;;;;5072937;28;20297;-67
2022/09/28 08:12:29;;;;;;;1999.90;999.90;;;;;;;;;;5072818;28;20229;-67
2022/09/28 08:15:14;;;;;;;1999.90;999.90;;;;;;;;;;5072322;28;20232;-68
2022/09/28 08:17:59;;;;;;;1999.90;999.90;;;;;;;;;;5072790;28;20207;-67
2022/09/28 08:23:48;;;;;;;1999.90;999.90;;;;;;;;;;5068409;28;20254;-64
2022/09/28 08:26:33;;;;;;;1999.90;999.90;;;;;;;;;;5061832;28;20216;-67
2022/09/28 08:29:18;;;;;;;1999.90;999.90;;;;;;;;;;5051770;28;20206;-66
2022/09/28 08:32:05;;;;;;;1999.90;999.90;;;;;;;;;;5069519;28;20723;-67
2022/09/28 08:34:50;;;;;;;1999.90;999.90;;;;;;;;;;5056757;28;20273;-67
2022/09/28 08:37:34;;;;;;;1999.90;999.90;;;;;;;;;;5051401;28;20211;-66
2022/09/28 08:40:23;;;;;;;1999.90;999.90;;;;;;;;;;5051805;28;20347;-66
2022/09/28 08:43:17;;;;;;;1999.90;999.90;;;;;;;;;;5061220;28;20205;-66
2022/09/28 08:46:02;;;;;;;1999.90;999.90;;;;;;;;;;5069518;28;20210;-68
2022/09/28 08:48:53;;;;;;;1999.90;999.90;;;;;;;;;;5067091;28;20428;-68
2022/09/28 08:51:42;;;;;;;1999.90;999.90;;;;;;;;;;5054501;28;20202;-67
2022/09/28 08:54:31;;;;;;;1999.90;999.90;;;;;;;;;;5050918;28;20234;-67
2022/09/28 08:57:20;;;;;;;1999.90;999.90;;;;;;;;;;5051385;28;20194;-66
2022/09/28 09:00:06;;;;;;;1999.90;999.90;;;;;;;;;;5051357;28;20621;-67
2022/09/28 09:02:51;;;;;;;1999.90;999.90;;;;;;;;;;5070001;28;20569;-68
2022/09/28 09:05:43;;;;;;;1999.90;999.90;;;;;;;;;;5069312;28;20238;-67
2022/09/28 09:08:34;;;;;;;1999.90;999.90;;;;;;;;;;5050974;28;20460;-67
2022/09/28 09:11:26;;;;;;;1999.90;999.90;;;;;;;;;;5051213;28;20963;-67
2022/09/28 09:14:26;;;;;;;1999.90;999.90;;;;;;;;;;5051012;28;20220;-67
2022/09/28 09:17:17;;;;;;;1999.90;999.90;;;;;;;;;;5050753;28;20209;-67
2022/09/28 09:20:06;;;;;;;1999.90;999.90;;;;;;;;;;5063461;28;20221;-68
2022/09/28 09:22:58;;;;;;;1999.90;999.90;;;;;;;;;;5070542;28;20205;-68
2022/09/28 09:25:48;;;;;;;1999.90;999.90;;;;;;;;;;5071589;28;20683;-68
2022/09/28 09:28:47;;;;;;;1999.90;999.90;;;;;;;;;;5071520;28;20688;-67
2022/09/28 09:31:41;;;;;;;1999.90;999.90;;;;;;;;;;5056835;28;20569;-67
2022/09/28 09:34:44;;;;;;;1999.90;999.90;;;;;;;;;;5051497;28;20265;-67
2022/09/28 09:37:35;;;;;;;1999.90;999.90;;;;;;;;;;5055748;28;20226;-67
2022/09/28 09:40:33;;;;;;;1999.90;999.90;;;;;;;;;;5060693;28;20202;-66
2022/09/28 09:43:31;;;;;;;1999.90;999.90;;;;;;;;;;5070559;28;20208;-68
2022/09/28 09:46:18;;;;;;;1999.90;999.90;;;;;;;;;;5073195;28;20208;-68
2022/09/28 09:49:08;;;;;;;1999.90;999.90;;;;;;;;;;5073684;28;20220;-67
2022/09/28 09:51:57;;;;;;;1999.90;999.90;;;;;;;;;;5068576;28;20273;-69
2022/09/28 09:54:44;;;;;;;1999.90;999.90;;;;;;;;;;5073199;28;20221;-69
2022/09/28 09:57:32;;;;;;;1999.90;999.90;;;;;;;;;;5073267;28;20680;-70
2022/09/28 10:00:17;;;;;;;1999.90;999.90;;;;;;;;;;5072623;28;20457;-70
2022/09/28 10:03:02;;;;;;;1999.90;999.90;;;;;;;;;;5073173;28;20203;-69
2022/09/28 10:05:50;;;;;;;1999.90;999.90;;;;;;;;;;5072680;28;21779;-70
2022/09/28 10:08:40;;;;;;;1999.90;999.90;;;;;;;;;;5067931;28;20245;-69
2022/09/28 10:11:27;;;;;;;1999.90;999.90;;;;;;;;;;5062146;28;20211;-70
2022/09/28 10:14:15;;;;;;;1999.90;999.90;;;;;;;;;;5064550;28;20236;-70
2022/09/28 10:17:02;;;;;;;1999.90;999.90;;;;;;;;;;5061336;28;20215;-69
2022/09/28 10:19:47;;;;;;;1999.90;999.90;;;;;;;;;;5064478;28;20774;-70
2022/09/28 10:22:34;;;;;;;1999.90;999.90;;;;;;;;;;5062093;28;20291;-69
2022/09/28 10:25:19;;;;;;;1999.90;999.90;;;;;;;;;;5064340;28;20238;-69
2022/09/28 10:28:05;;;;;;;1999.90;999.90;;;;;;;;;;5061098;28;20295;-69
2022/09/28 10:30:50;;;;;;;1999.90;999.90;;;;;;;;;;5058856;28;20220;-70
2022/09/28 10:33:35;;;;;;;1999.90;999.90;;;;;;;;;;5061792;28;20244;-69
2022/09/28 10:36:20;;;;;;;1999.90;999.90;;;;;;;;;;5058279;28;20597;-69
2022/09/28 10:39:20;;;;;;;1999.90;999.90;;;;;;;;;;5063939;28;20228;-69
2022/09/28 10:42:07;;;;;;;1999.90;999.90;;;;;;;;;;5061737;28;20248;-68
2022/09/28 10:44:58;;;;;;;1999.90;999.90;;;;;;;;;;5062573;28;20317;-70
2022/09/28 10:47:44;;;;;;;1999.90;999.90;;;;;;;;;;5061668;28;20326;-70
2022/09/28 10:50:29;;;;;;;1999.90;999.90;;;;;;;;;;5060860;28;20213;-69
2022/09/28 10:53:18;;;;;;;1999.90;999.90;;;;;;;;;;5057663;28;20269;-69
2022/09/28 10:56:06;;;;;;;1999.90;999.90;;;;;;;;;;5062484;28;20351;-69
2022/09/28 10:58:51;;;;;;;1999.90;999.90;;;;;;;;;;5059229;28;20208;-70
2022/09/28 11:01:36;;;;;;;1999.90;999.90;;;;;;;;;;5060831;28;20739;-68
2022/09/28 11:04:22;;;;;;;1999.90;999.90;;;;;;;;;;5060941;28;20798;-69
2022/09/28 11:07:16;;;;;;;1999.90;999.90;;;;;;;;;;5058695;28;20225;-69
2022/09/28 11:10:02;;;;;;;1999.90;999.90;;;;;;;;;;5060737;28;20525;-69
2022/09/28 11:12:49;;;;;;;1999.90;999.90;;;;;;;;;;5063475;28;20579;-67
2022/09/28 11:15:34;;;;;;;1999.90;999.90;;;;;;;;;;5062797;28;20236;-68
2022/09/28 11:18:24;;;;;;;1999.90;999.90;;;;;;;;;;5061111;28;20777;-69
2022/09/28 11:21:10;;;;;;;1999.90;999.90;;;;;;;;;;5067403;28;20573;-67
2022/09/28 11:23:56;;;;;;;1999.90;999.90;;;;;;;;;;5062157;28;20250;-70
2022/09/28 11:26:42;;;;;;;1999.90;999.90;;;;;;;;;;5061279;28;20216;-70
2022/09/28 11:29:40;;;;;;;1999.90;999.90;;;;;;;;;;5060018;28;20436;-69
2022/09/28 11:32:28;;;;;;;1999.90;999.90;;;;;;;;;;5054260;28;20282;-69
2022/09/28 11:35:17;;;;;;;1999.90;999.90;;;;;;;;;;5061592;28;20220;-68
2022/09/28 11:38:08;;;;;;;1999.90;999.90;;;;;;;;;;5071002;28;20721;-70
2022/09/28 11:40:58;;;;;;;1999.90;999.90;;;;;;;;;;5065047;28;20212;-69
2022/09/28 11:43:59;;;;;;;1999.90;999.90;;;;;;;;;;5062812;28;20570;-69
2022/09/28 11:46:51;;;;;;;1999.90;999.90;;;;;;;;;;5070285;28;20204;-68
2022/09/28 11:49:39;;;;;;;1999.90;999.90;;;;;;;;;;5065586;28;20231;-69
2022/09/28 11:52:27;;;;;;;1999.90;999.90;;;;;;;;;;5064191;28;20749;-70
2022/09/28 11:55:15;;;;;;;1999.90;999.90;;;;;;;;;;5071993;28;20725;-69
2022/09/28 11:58:03;;;;;;;1999.90;999.90;;;;;;;;;;5068987;28;20294;-69
2022/09/28 12:00:50;;;;;;;1999.90;999.90;;;;;;;;;;5067829;28;20215;-68
2022/09/28 12:03:39;;;;;;;1999.90;999.90;;;;;;;;;;5066757;28;20311;-68
2022/09/28 12:06:27;;;;;;;1999.90;999.90;;;;;;;;;;5068643;28;20694;-69
2022/09/28 12:09:14;;;;;;;1999.90;999.90;;;;;;;;;;5066691;28;20725;-69
2022/09/28 12:12:01;;;;;;;1999.90;999.90;;;;;;;;;;5063387;28;20240;-69
2022/09/28 12:14:47;;;;;;;1999.90;999.90;;;;;;;;;;5056839;28;20231;-69
2022/09/28 12:17:34;;;;;;;1999.90;999.90;;;;;;;;;;5060649;28;20201;-69
2022/09/28 12:20:24;;;;;;;1999.90;999.90;;;;;;;;;;5056583;28;20446;-69
2022/09/28 12:23:13;;;;;;;1999.90;999.90;;;;;;;;;;5069378;28;20330;-69
2022/09/28 12:25:59;;;;;;;1999.90;999.90;;;;;;;;;;5067500;28;20706;-69
2022/09/28 12:28:45;;;;;;;1999.90;999.90;;;;;;;;;;5058250;28;20217;-69
2022/09/28 12:31:33;;;;;;;1999.90;999.90;;;;;;;;;;5056133;28;20225;-68
2022/09/28 12:34:18;;;;;;;1999.90;999.90;;;;;;;;;;5051688;28;20244;-69
2022/09/28 12:37:15;;;;;;;1999.90;999.90;;;;;;;;;;5051748;28;20262;-68
2022/09/28 12:40:05;;;;;;;1999.90;999.90;;;;;;;;;;5058231;28;20423;-69
2022/09/28 12:43:03;;;;;;;1999.90;999.90;;;;;;;;;;5051693;28;20209;-68
2022/09/28 12:45:56;;;;;;;1999.90;999.90;;;;;;;;;;5052790;28;20277;-68
2022/09/28 12:48:59;;;;;;;1999.90;999.90;;;;;;;;;;5051425;28;20229;-69
2022/09/28 12:51:48;;;;;;;1999.90;999.90;;;;;;;;;;5053295;28;20209;-68
2022/09/28 12:54:46;;;;;;;1999.90;999.90;;;;;;;;;;5051079;28;20241;-69
2022/09/28 12:57:38;;;;;;;1999.90;999.90;;;;;;;;;;5051107;28;20209;-67
2022/09/28 13:00:25;;;;;;;1999.90;999.90;;;;;;;;;;5051405;28;20206;-68
2022/09/28 13:03:17;;;;;;;1999.90;999.90;;;;;;;;;;5051089;28;20208;-66
2022/09/28 13:06:15;;;;;;;1999.90;999.90;;;;;;;;;;5050999;28;20638;-67
2022/09/28 13:09:06;;;;;;;1999.90;999.90;;;;;;;;;;5050797;28;20225;-69
2022/09/28 13:12:09;;;;;;;1999.90;999.90;;;;;;;;;;5051382;28;20698;-68
2022/09/28 13:15:15;;;;;;;1999.90;999.90;;;;;;;;;;5050866;28;20348;-67
2022/09/28 13:18:07;;;;;;;1999.90;999.90;;;;;;;;;;5051092;28;20205;-69
2022/09/28 13:21:07;;;;;;;1999.90;999.90;;;;;;;;;;5051123;28;20210;-68
2022/09/28 13:23:54;;;;;;;1999.90;999.90;;;;;;;;;;5051968;28;20580;-68
2022/09/28 13:26:42;;;;;;;1999.90;999.90;;;;;;;;;;5050666;28;20211;-68
2022/09/28 13:29:27;;;;;;;1999.90;999.90;;;;;;;;;;5054292;28;20316;-67
2022/09/28 13:32:12;;;;;;;1999.90;999.90;;;;;;;;;;5066370;28;20888;-67
2022/09/28 13:35:00;;;;;;;1999.90;999.90;;;;;;;;;;5065730;28;20231;-67
2022/09/28 13:37:46;;;;;;;1999.90;999.90;;;;;;;;;;5067647;28;20261;-68
2022/09/28 13:40:46;;;;;;;1999.90;999.90;;;;;;;;;;5059760;28;20215;-69
2022/09/28 13:43:32;;;;;;;1999.90;999.90;;;;;;;;;;5050845;28;20212;-68
2022/09/28 13:46:21;;;;;;;1999.90;999.90;;;;;;;;;;5053345;28;20255;-68
2022/09/28 13:49:11;;;;;;;1999.90;999.90;;;;;;;;;;5050473;28;20225;-68
2022/09/28 13:52:02;;;;;;;1999.90;999.90;;;;;;;;;;5049473;28;20408;-68
2022/09/28 13:54:55;;;;;;;1999.90;999.90;;;;;;;;;;5050658;28;20227;-67
2022/09/28 13:57:43;;;;;;;1999.90;999.90;;;;;;;;;;5051522;28;20205;-69
2022/09/28 14:00:29;;;;;;;1999.90;999.90;;;;;;;;;;5051145;28;20206;-66
2022/09/28 14:03:24;;;;;;;1999.90;999.90;;;;;;;;;;5063519;28;20203;-65
2022/09/28 14:06:21;;;;;;;1999.90;999.90;;;;;;;;;;5051298;28;20602;-68
2022/09/28 14:09:21;;;;;;;1999.90;999.90;;;;;;;;;;5065183;28;20233;-68
2022/09/28 14:12:21;;;;;;;1999.90;999.90;;;;;;;;;;5069416;28;20210;-67
2022/09/28 14:15:31;;;;;;;1999.90;999.90;;;;;;;;;;5069516;28;20266;-68
2022/09/28 14:18:26;;;;;;;1999.90;999.90;;;;;;;;;;5062548;28;20202;-67
2022/09/28 14:21:37;;;;;;;1999.90;999.90;;;;;;;;;;5067723;28;20333;-68
2022/09/28 14:24:29;;;;;;;1999.90;999.90;;;;;;;;;;5067582;28;20660;-68
2022/09/28 14:27:27;;;;;;;1999.90;999.90;;;;;;;;;;5062960;28;20283;-67
2022/09/28 14:30:22;;;;;;;1999.90;999.90;;;;;;;;;;5061992;28;20246;-68
2022/09/28 14:33:15;;;;;;;1999.90;999.90;;;;;;;;;;5072965;28;20694;-68
2022/09/28 14:36:03;;;;;;;1999.90;999.90;;;;;;;;;;5072267;28;20783;-68
2022/09/28 14:41:54;;;;;;;1999.90;999.90;;;;;;;;;;5071687;28;20423;-67
2022/09/28 14:44:58;;;;;;;1999.90;999.90;;;;;;;;;;5062616;28;20232;-67
2022/09/28 14:47:44;;;;;;;1999.90;999.90;;;;;;;;;;5053545;28;20274;-67
2022/09/28 14:50:29;;;;;;;1999.90;999.90;;;;;;;;;;5056355;28;20243;-67
2022/09/28 14:53:18;;;;;;;1999.90;999.90;;;;;;;;;;5053590;28;20686;-67
2022/09/28 14:56:08;;;;;;;1999.90;999.90;;;;;;;;;;5057072;28;20203;-67
2022/09/28 14:58:56;;;;;;;1999.90;999.90;;;;;;;;;;5072468;28;20270;-68
2022/09/28 15:01:42;;;;;;;1999.90;999.90;;;;;;;;;;5072264;28;20214;-67
2022/09/28 15:04:29;;;;;;;1999.90;999.90;;;;;;;;;;5072008;28;20231;-68
2022/09/28 15:07:18;;;;;;;1999.90;999.90;;;;;;;;;;5061392;28;20215;-68
2022/09/28 15:10:14;;;;;;;1999.90;999.90;;;;;;;;;;5065313;28;20397;-69
2022/09/28 15:13:01;;;;;;;1999.90;999.90;;;;;;;;;;5068722;28;20208;-69
2022/09/28 15:15:49;;;;;;;1999.90;999.90;;;;;;;;;;5053658;28;20211;-68
2022/09/28 15:18:42;;;;;;;1999.90;999.90;;;;;;;;;;5053961;28;20200;-69
2022/09/28 15:21:32;;;;;;;1999.90;999.90;;;;;;;;;;5065996;28;20334;-68
2022/09/28 15:24:24;;;;;;;1999.90;999.90;;;;;;;;;;5073516;28;20224;-68
2022/09/28 15:27:14;;;;;;;1999.90;999.90;;;;;;;;;;5074294;28;20732;-69
2022/09/28 15:30:00;;;;;;;1999.90;999.90;;;;;;;;;;5073824;28;20232;-69
2022/09/28 15:32:47;;;;;;;1999.90;999.90;;;;;;;;;;5073131;28;20219;-69
2022/09/28 15:35:31;;;;;;;1999.90;999.90;;;;;;;;;;5073260;28;20774;-69
2022/09/28 15:38:17;;;;;;;1999.90;999.90;;;;;;;;;;5073517;28;20203;-69
2022/09/28 15:41:03;;;;;;;1999.90;999.90;;;;;;;;;;5073488;28;20199;-68
2022/09/28 15:44:03;;;;;;;1999.90;999.90;;;;;;;;;;5073180;28;20348;-69
2022/09/28 15:46:50;;;;;;;1999.90;999.90;;;;;;;;;;5073357;28;20201;-68
2022/09/28 15:49:40;;;;;;;1999.90;999.90;;;;;;;;;;5073083;28;20234;-67
2022/09/28 15:52:34;;;;;;;1999.90;999.90;;;;;;;;;;5053057;28;20220;-69
2022/09/28 15:55:22;;;;;;;1999.90;999.90;;;;;;;;;;5051482;28;20410;-67
2022/09/28 15:58:15;;;;;;;1999.90;999.90;;;;;;;;;;5066396;28;20212;-67
2022/09/28 16:01:19;;;;;;;1999.90;999.90;;;;;;;;;;5072898;28;20297;-69
2022/09/28 16:04:28;;;;;;;1999.90;999.90;;;;;;;;;;5072622;28;20281;-68
2022/09/28 16:07:22;;;;;;;1999.90;999.90;;;;;;;;;;5061364;28;20286;-67
2022/09/28 16:10:25;;;;;;;1999.90;999.90;;;;;;;;;;5072709;28;20224;-69
2022/09/28 16:13:16;;;;;;;1999.90;999.90;;;;;;;;;;5072156;28;20415;-67
2022/09/28 16:16:01;;;;;;;1999.90;999.90;;;;;;;;;;5072699;28;20425;-68
2022/09/28 16:18:47;;;;;;;1999.90;999.90;;;;;;;;;;5073016;28;20208;-68
2022/09/28 16:21:42;;;;;;;1999.90;999.90;;;;;;;;;;5060067;28;20216;-68
2022/09/28 16:24:29;;;;;;;1999.90;999.90;;;;;;;;;;5052163;28;20732;-67
2022/09/28 16:27:24;;;;;;;1999.90;999.90;;;;;;;;;;5052706;28;20657;-68
2022/09/28 16:30:14;;;;;;;1999.90;999.90;;;;;;;;;;5062186;28;20252;-68
2022/09/28 16:33:00;;;;;;;1999.90;999.90;;;;;;;;;;5051873;28;20345;-67
2022/09/28 16:35:51;;;;;;;1999.90;999.90;;;;;;;;;;5069902;28;20210;-68
2022/09/28 16:38:37;;;;;;;1999.90;999.90;;;;;;;;;;5057282;28;20219;-69
2022/09/28 16:41:25;;;;;;;1999.90;999.90;;;;;;;;;;5065869;28;20262;-68
2022/09/28 16:44:14;;;;;;;1999.90;999.90;;;;;;;;;;5069311;28;20278;-67
2022/09/28 16:47:00;;;;;;;1999.90;999.90;;;;;;;;;;5059501;28;20215;-68
2022/09/28 16:49:47;;;;;;;1999.90;999.90;;;;;;;;;;5070651;28;20235;-69
2022/09/28 16:55:34;;;;;;;1999.90;999.90;;;;;;;;;;5062128;28;20273;-68